Time;durP1;ratioP1;P1;durP2;ratioP2;P2;SDS_P1;SDS_P2;PMS_P1;PMS_P2;Temp;Humidity;BMP_temperature;BMP_pressure;BME280_temperature;BME280_humidity;BME280_pressure;Samples;Min_cycle;Max_cycle;Signal;HPM_P1;HPM_P2
2023/08/18 00:00:58;;;;;;;25.02;15.60;;;;;;;;;;10158625;28;20043;-90
2023/08/18 00:05:59;;;;;;;24.08;14.73;;;;;;;;;;10147576;28;20097;-91
2023/08/18 00:11:01;;;;;;;20.30;12.35;;;;;;;;;;10155938;28;20036;-90
2023/08/18 00:16:11;;;;;;;19.00;13.25;;;;;;;;;;10149924;28;20122;-90
2023/08/18 00:21:15;;;;;;;21.15;12.98;;;;;;;;;;10153193;28;20356;-89
2023/08/18 00:26:16;;;;;;;25.42;15.32;;;;;;;;;;10145237;28;20036;-90
2023/08/18 00:31:17;;;;;;;18.88;13.10;;;;;;;;;;10144464;28;20028;-90
2023/08/18 00:36:18;;;;;;;22.25;13.80;;;;;;;;;;10155120;28;20051;-90
2023/08/18 00:41:19;;;;;;;23.33;14.20;;;;;;;;;;10161650;28;20056;-90
2023/08/18 00:46:21;;;;;;;22.63;14.23;;;;;;;;;;10144515;28;20036;-89
2023/08/18 00:51:22;;;;;;;22.63;14.10;;;;;;;;;;10142865;28;20700;-90
2023/08/18 00:56:24;;;;;;;23.42;14.50;;;;;;;;;;10142634;28;20054;-90
2023/08/18 01:01:25;;;;;;;26.83;15.93;;;;;;;;;;10148042;28;20055;-90
2023/08/18 01:06:26;;;;;;;20.48;12.80;;;;;;;;;;10180841;28;20398;-90
2023/08/18 01:11:27;;;;;;;20.55;13.23;;;;;;;;;;10157454;28;20066;-90
2023/08/18 01:16:29;;;;;;;26.77;15.82;;;;;;;;;;10168616;28;20141;-90
2023/08/18 01:21:30;;;;;;;24.00;12.85;;;;;;;;;;10147339;28;20040;-90
2023/08/18 01:26:31;;;;;;;32.40;16.20;;;;;;;;;;10168175;28;20074;-89
2023/08/18 01:31:35;;;;;;;29.33;15.55;;;;;;;;;;10164643;28;20028;-94
2023/08/18 01:36:38;;;;;;;28.38;16.38;;;;;;;;;;10150674;28;20047;-90
2023/08/18 01:41:40;;;;;;;30.17;16.63;;;;;;;;;;10157840;28;20059;-88
2023/08/18 01:46:42;;;;;;;30.45;17.40;;;;;;;;;;10160121;28;20033;-88
2023/08/18 01:51:43;;;;;;;30.40;17.20;;;;;;;;;;10159819;28;20068;-88
2023/08/18 01:56:44;;;;;;;27.92;16.88;;;;;;;;;;10145733;28;20094;-89
2023/08/18 02:01:45;;;;;;;26.05;15.52;;;;;;;;;;10154005;28;20048;-89
2023/08/18 02:06:46;;;;;;;34.53;17.15;;;;;;;;;;10144266;28;20512;-91
2023/08/18 02:11:47;;;;;;;24.35;15.27;;;;;;;;;;10143884;28;20553;-89
2023/08/18 02:16:49;;;;;;;23.33;14.15;;;;;;;;;;10151534;28;20042;-90
2023/08/18 02:21:50;;;;;;;23.63;15.40;;;;;;;;;;10144912;28;20040;-92
2023/08/18 02:26:51;;;;;;;24.88;14.38;;;;;;;;;;10154587;28;20403;-90
2023/08/18 02:31:52;;;;;;;25.65;15.65;;;;;;;;;;10159844;28;20036;-91
2023/08/18 02:36:53;;;;;;;32.72;18.38;;;;;;;;;;10156788;28;20122;-90
2023/08/18 02:41:55;;;;;;;38.92;19.23;;;;;;;;;;10152413;28;20066;-89
2023/08/18 02:46:56;;;;;;;42.63;20.10;;;;;;;;;;10159437;28;20067;-90
2023/08/18 02:51:57;;;;;;;32.63;18.63;;;;;;;;;;10160159;28;20043;-89
2023/08/18 02:56:58;;;;;;;29.08;16.25;;;;;;;;;;10152552;28;20549;-92
2023/08/18 03:01:59;;;;;;;23.27;15.32;;;;;;;;;;10170241;28;20530;-91
2023/08/18 03:07:00;;;;;;;23.52;15.43;;;;;;;;;;10149629;28;20113;-90
2023/08/18 03:12:01;;;;;;;37.00;20.08;;;;;;;;;;10148727;28;20042;-90
2023/08/18 03:17:03;;;;;;;27.92;18.08;;;;;;;;;;10145126;28;20043;-92
2023/08/18 03:22:04;;;;;;;26.17;17.10;;;;;;;;;;10139785;28;20044;-91
2023/08/18 03:27:05;;;;;;;28.85;17.65;;;;;;;;;;10184133;28;20101;-90
2023/08/18 03:32:06;;;;;;;30.50;17.95;;;;;;;;;;10147513;28;20043;-90
2023/08/18 03:37:08;;;;;;;33.58;19.15;;;;;;;;;;10159709;28;20483;-90
2023/08/18 03:42:09;;;;;;;30.48;18.83;;;;;;;;;;10138252;28;20444;-90
2023/08/18 03:47:56;;;;;;;25.88;16.85;;;;;;;;;;10296303;28;20030;-92
2023/08/18 03:52:57;;;;;;;28.50;17.77;;;;;;;;;;10203929;29;20043;-89
2023/08/18 03:58:08;;;;;;;29.30;18.10;;;;;;;;;;10172632;29;20772;-93
2023/08/18 04:03:27;;;;;;;27.17;17.67;;;;;;;;;;10189533;29;20425;-93
2023/08/18 04:08:40;;;;;;;32.20;19.42;;;;;;;;;;10275424;28;20039;-90
2023/08/18 04:19:13;;;;;;;32.83;18.25;;;;;;;;;;10166352;28;20040;-88
2023/08/18 04:24:15;;;;;;;24.95;15.93;;;;;;;;;;10148287;28;20363;-90
2023/08/18 04:35:01;;;;;;;28.55;16.38;;;;;;;;;;10168381;28;20044;-90
2023/08/18 04:40:12;;;;;;;23.48;16.55;;;;;;;;;;10150315;28;20028;-94
2023/08/18 04:45:15;;;;;;;23.98;15.85;;;;;;;;;;10170417;28;20051;-90
2023/08/18 04:50:16;;;;;;;28.45;15.95;;;;;;;;;;10185213;28;20031;-90
2023/08/18 04:55:17;;;;;;;30.50;17.52;;;;;;;;;;10172829;28;20078;-92
2023/08/18 05:00:19;;;;;;;27.85;16.17;;;;;;;;;;10158907;28;20036;-90
2023/08/18 05:05:21;;;;;;;25.95;15.93;;;;;;;;;;10165962;28;20490;-93
2023/08/18 05:10:22;;;;;;;30.80;17.48;;;;;;;;;;10215482;28;20027;-88
2023/08/18 05:15:23;;;;;;;29.98;17.35;;;;;;;;;;10159972;28;20115;-88
2023/08/18 05:20:24;;;;;;;25.45;16.77;;;;;;;;;;10188414;28;20434;-89
2023/08/18 05:25:26;;;;;;;29.42;17.80;;;;;;;;;;10173051;28;20052;-91
2023/08/18 05:30:27;;;;;;;24.45;15.80;;;;;;;;;;10157081;28;20044;-90
2023/08/18 05:35:28;;;;;;;26.35;16.58;;;;;;;;;;10144297;28;20032;-91
2023/08/18 05:40:29;;;;;;;22.42;15.43;;;;;;;;;;10172168;28;20024;-90
2023/08/18 05:45:30;;;;;;;30.13;17.20;;;;;;;;;;10149193;28;20048;-91
2023/08/18 05:50:32;;;;;;;27.20;16.15;;;;;;;;;;10143222;28;20024;-91
2023/08/18 05:55:33;;;;;;;31.65;16.15;;;;;;;;;;10150552;28;20162;-90
2023/08/18 06:00:34;;;;;;;28.00;16.63;;;;;;;;;;10153133;28;20076;-89
2023/08/18 06:05:35;;;;;;;25.23;14.68;;;;;;;;;;10158773;28;20056;-91
2023/08/18 06:10:36;;;;;;;27.08;14.43;;;;;;;;;;10163582;28;20034;-88
2023/08/18 06:15:38;;;;;;;21.02;14.48;;;;;;;;;;10149857;28;20028;-92
2023/08/18 06:20:39;;;;;;;22.05;13.85;;;;;;;;;;10159292;28;20050;-88
2023/08/18 06:25:40;;;;;;;23.92;14.52;;;;;;;;;;10149398;28;20095;-90
2023/08/18 06:31:06;;;;;;;20.73;14.10;;;;;;;;;;10183741;28;20043;-90
2023/08/18 06:36:07;;;;;;;;;;;;;;;;;;10157610;28;20068;-90
2023/08/18 06:41:09;;;;;;;20.90;13.50;;;;;;;;;;10153753;28;19918;-88
2023/08/18 06:46:10;;;;;;;18.23;12.63;;;;;;;;;;10154271;28;20494;-87
2023/08/18 06:51:11;;;;;;;19.02;13.30;;;;;;;;;;10140465;28;20044;-90
2023/08/18 06:56:12;;;;;;;20.80;12.98;;;;;;;;;;10141678;28;20020;-90
2023/08/18 07:01:13;;;;;;;23.65;13.05;;;;;;;;;;10144923;28;20032;-91
2023/08/18 07:06:15;;;;;;;15.43;11.18;;;;;;;;;;10156248;28;20028;-91
2023/08/18 07:11:16;;;;;;;15.45;11.30;;;;;;;;;;10142586;28;20439;-91
2023/08/18 07:16:26;;;;;;;14.25;10.63;;;;;;;;;;10180485;28;20391;-92
2023/08/18 07:21:27;;;;;;;14.27;10.88;;;;;;;;;;10154875;28;20029;-90
2023/08/18 07:26:28;;;;;;;14.93;10.82;;;;;;;;;;10141975;28;20032;-91
2023/08/18 07:31:29;;;;;;;13.70;11.00;;;;;;;;;;10144819;28;20032;-89
2023/08/18 07:36:30;;;;;;;14.07;11.30;;;;;;;;;;10171265;29;20113;-91
2023/08/18 07:41:31;;;;;;;15.38;11.93;;;;;;;;;;10153938;28;20098;-89
2023/08/18 07:46:32;;;;;;;12.45;9.35;;;;;;;;;;10145854;28;20032;-91
2023/08/18 07:51:33;;;;;;;12.93;9.40;;;;;;;;;;10169675;28;20081;-91
2023/08/18 07:56:35;;;;;;;14.32;9.13;;;;;;;;;;10142265;28;20038;-93
2023/08/18 08:01:36;;;;;;;12.07;9.45;;;;;;;;;;10158337;28;20055;-91
2023/08/18 08:06:37;;;;;;;14.18;9.38;;;;;;;;;;10160422;28;20028;-93
2023/08/18 08:11:38;;;;;;;10.73;8.55;;;;;;;;;;10152386;28;21535;-91
2023/08/18 08:16:39;;;;;;;10.48;9.32;;;;;;;;;;10160433;28;20032;-92
2023/08/18 08:21:43;;;;;;;14.10;9.50;;;;;;;;;;10153788;28;20048;-92
2023/08/18 08:26:45;;;;;;;;;;;;;;;;;;10153670;28;20028;-88
2023/08/18 08:31:46;;;;;;;12.50;7.65;;;;;;;;;;10190301;28;21569;-91
2023/08/18 08:36:47;;;;;;;10.13;8.32;;;;;;;;;;10136233;28;20480;-89
2023/08/18 08:41:48;;;;;;;11.40;7.40;;;;;;;;;;10169759;28;20060;-89
2023/08/18 08:46:49;;;;;;;9.90;7.70;;;;;;;;;;10148639;28;20028;-89
2023/08/18 08:51:51;;;;;;;8.15;6.78;;;;;;;;;;10166209;29;20040;-87
2023/08/18 08:56:53;;;;;;;11.75;7.05;;;;;;;;;;10167473;28;20462;-89
2023/08/18 09:01:54;;;;;;;6.53;5.65;;;;;;;;;;10150647;28;20036;-88
2023/08/18 09:06:56;;;;;;;7.28;5.65;;;;;;;;;;10166206;28;20070;-88
2023/08/18 09:12:05;;;;;;;9.25;6.07;;;;;;;;;;10150239;28;20040;-88
2023/08/18 09:17:07;;;;;;;7.00;5.68;;;;;;;;;;10146711;28;20047;-87
2023/08/18 09:22:08;;;;;;;7.78;5.28;;;;;;;;;;10158594;28;20047;-89
2023/08/18 09:27:11;;;;;;;7.38;5.70;;;;;;;;;;10148639;28;20039;-88
2023/08/18 09:32:12;;;;;;;6.35;4.70;;;;;;;;;;10157584;28;20040;-89
2023/08/18 09:37:16;;;;;;;9.00;4.93;;;;;;;;;;10147073;28;20036;-89
2023/08/18 09:42:17;;;;;;;6.50;5.05;;;;;;;;;;10167534;28;20479;-88
2023/08/18 09:47:18;;;;;;;8.45;5.85;;;;;;;;;;10144952;28;20028;-88
2023/08/18 09:52:19;;;;;;;8.55;6.32;;;;;;;;;;10145663;28;20360;-88
2023/08/18 09:57:31;;;;;;;11.23;7.45;;;;;;;;;;10143917;28;20034;-89
2023/08/18 10:02:34;;;;;;;8.77;7.15;;;;;;;;;;10148382;28;20048;-90
2023/08/18 10:07:35;;;;;;;11.25;8.48;;;;;;;;;;10170966;28;20619;-88
2023/08/18 10:12:36;;;;;;;9.98;7.63;;;;;;;;;;10153191;28;20044;-88
2023/08/18 10:17:37;;;;;;;9.95;8.57;;;;;;;;;;10142922;28;20464;-89
2023/08/18 10:22:39;;;;;;;9.77;8.20;;;;;;;;;;10168467;28;20755;-88
2023/08/18 10:27:41;;;;;;;61.65;12.57;;;;;;;;;;10160364;28;20043;-88
2023/08/18 10:32:42;;;;;;;11.52;8.98;;;;;;;;;;10219977;23;20410;-86
2023/08/18 10:37:43;;;;;;;12.40;8.70;;;;;;;;;;10272176;28;20031;-92
2023/08/18 10:42:44;;;;;;;17.02;10.13;;;;;;;;;;10228281;28;20051;-91
2023/08/18 10:47:45;;;;;;;11.00;8.98;;;;;;;;;;10241111;28;20039;-89
2023/08/18 10:52:46;;;;;;;13.85;9.00;;;;;;;;;;10245089;28;20741;-92
2023/08/18 10:57:47;;;;;;;14.82;9.63;;;;;;;;;;10243395;28;20031;-90
2023/08/18 11:02:49;;;;;;;12.38;9.70;;;;;;;;;;10243173;28;20047;-90
2023/08/18 11:07:51;;;;;;;11.63;8.38;;;;;;;;;;10208464;28;20035;-90
2023/08/18 11:12:53;;;;;;;10.23;9.10;;;;;;;;;;10210015;28;20043;-90
2023/08/18 11:17:54;;;;;;;12.95;9.75;;;;;;;;;;10180260;28;20038;-90
2023/08/18 11:22:55;;;;;;;10.05;8.38;;;;;;;;;;10215584;28;20585;-90
2023/08/18 11:27:56;;;;;;;11.48;8.93;;;;;;;;;;10186789;28;20023;-88
2023/08/18 11:32:58;;;;;;;12.73;9.25;;;;;;;;;;10213676;28;20051;-88
2023/08/18 11:37:59;;;;;;;12.00;9.27;;;;;;;;;;10196885;29;20046;-89
2023/08/18 11:43:00;;;;;;;15.95;10.10;;;;;;;;;;10234983;28;20584;-91
2023/08/18 11:48:03;;;;;;;12.82;9.57;;;;;;;;;;10217683;29;20054;-90
2023/08/18 11:53:05;;;;;;;10.40;9.07;;;;;;;;;;10230771;28;20028;-86
2023/08/18 11:58:08;;;;;;;10.77;8.48;;;;;;;;;;10201168;28;20126;-88
2023/08/18 12:03:26;;;;;;;10.53;8.00;;;;;;;;;;10214693;28;20044;-88
2023/08/18 12:08:44;;;;;;;16.75;8.52;;;;;;;;;;10210740;28;20039;-89
2023/08/18 12:13:45;;;;;;;9.25;7.75;;;;;;;;;;10205329;28;20039;-90
2023/08/18 12:18:48;;;;;;;11.65;7.70;;;;;;;;;;10232256;28;20047;-88
2023/08/18 12:23:49;;;;;;;8.93;7.60;;;;;;;;;;10211040;28;20168;-90
2023/08/18 12:28:50;;;;;;;10.05;7.78;;;;;;;;;;10216899;28;20807;-92
2023/08/18 12:33:51;;;;;;;9.80;7.38;;;;;;;;;;10199120;28;20426;-91
2023/08/18 12:38:52;;;;;;;10.38;7.75;;;;;;;;;;10205640;28;20043;-90
2023/08/18 12:43:54;;;;;;;10.13;7.57;;;;;;;;;;10199358;29;20094;-90
2023/08/18 12:48:55;;;;;;;9.68;7.30;;;;;;;;;;10201801;28;20046;-91
2023/08/18 12:53:56;;;;;;;8.73;7.25;;;;;;;;;;10211512;28;20027;-89
2023/08/18 12:58:57;;;;;;;9.32;5.57;;;;;;;;;;10214655;28;20035;-90
2023/08/18 13:03:58;;;;;;;6.57;5.80;;;;;;;;;;10201521;28;20042;-92
2023/08/18 13:08:59;;;;;;;6.82;5.78;;;;;;;;;;10236238;28;20553;-90
2023/08/18 13:14:00;;;;;;;6.55;5.65;;;;;;;;;;10211046;28;20028;-90
2023/08/18 13:19:01;;;;;;;5.68;5.07;;;;;;;;;;10224254;28;20031;-90
2023/08/18 13:24:03;;;;;;;10.45;6.03;;;;;;;;;;10213298;28;20045;-88
2023/08/18 13:29:04;;;;;;;8.18;6.88;;;;;;;;;;10216121;28;20050;-89
2023/08/18 13:34:05;;;;;;;8.23;6.47;;;;;;;;;;10199878;28;20056;-88
2023/08/18 13:39:07;;;;;;;8.90;5.70;;;;;;;;;;10216720;28;20514;-89
2023/08/18 13:44:08;;;;;;;7.22;6.35;;;;;;;;;;10203594;28;20570;-87
2023/08/18 13:49:12;;;;;;;8.85;6.40;;;;;;;;;;10227837;28;20160;-87
2023/08/18 13:54:13;;;;;;;7.47;6.30;;;;;;;;;;10216546;28;20070;-88
2023/08/18 13:59:14;;;;;;;9.10;6.78;;;;;;;;;;10234724;28;20142;-89
2023/08/18 14:04:17;;;;;;;9.50;7.25;;;;;;;;;;10206790;28;20039;-88
2023/08/18 14:09:18;;;;;;;8.80;6.68;;;;;;;;;;10212267;28;20028;-87
2023/08/18 14:14:19;;;;;;;9.60;6.78;;;;;;;;;;10239896;29;20023;-87
2023/08/18 14:19:21;;;;;;;8.93;7.15;;;;;;;;;;10220445;28;20427;-88
2023/08/18 14:24:22;;;;;;;11.30;6.80;;;;;;;;;;10209009;28;20083;-86
2023/08/18 14:29:24;;;;;;;9.30;6.82;;;;;;;;;;10208724;28;20092;-86
2023/08/18 14:34:25;;;;;;;8.73;6.95;;;;;;;;;;10215412;28;20192;-84
2023/08/18 14:39:26;;;;;;;8.75;6.95;;;;;;;;;;10231832;28;20039;-85
2023/08/18 14:44:27;;;;;;;9.25;7.60;;;;;;;;;;10226781;28;20528;-87
2023/08/18 14:49:28;;;;;;;10.05;7.47;;;;;;;;;;10213105;28;20031;-86
2023/08/18 14:54:29;;;;;;;8.73;7.25;;;;;;;;;;10226006;29;20122;-86
2023/08/18 14:59:30;;;;;;;9.77;6.88;;;;;;;;;;10201710;28;20072;-86
2023/08/18 15:04:32;;;;;;;9.43;8.18;;;;;;;;;;10217853;28;20051;-87
2023/08/18 15:09:33;;;;;;;9.82;7.35;;;;;;;;;;10230636;29;20019;-87
2023/08/18 15:14:36;;;;;;;11.02;8.23;;;;;;;;;;10220101;28;20034;-88
2023/08/18 15:19:37;;;;;;;12.05;7.82;;;;;;;;;;10234156;28;20378;-87
2023/08/18 15:24:38;;;;;;;9.10;7.80;;;;;;;;;;10225445;28;20173;-89
2023/08/18 15:29:39;;;;;;;10.07;8.32;;;;;;;;;;10226318;28;20062;-87
2023/08/18 15:34:40;;;;;;;8.88;6.82;;;;;;;;;;10227630;28;20136;-87
2023/08/18 15:39:41;;;;;;;10.30;7.47;;;;;;;;;;10212362;28;20039;-87
2023/08/18 15:44:46;;;;;;;9.88;7.60;;;;;;;;;;10201907;28;20051;-87
2023/08/18 15:49:47;;;;;;;;;;;;;;;;;;10178305;23;20060;-85
2023/08/18 15:54:48;;;;;;;9.88;8.52;;;;;;;;;;10151785;29;19922;-88
2023/08/18 15:59:49;;;;;;;9.75;8.75;;;;;;;;;;10161777;28;20040;-88
2023/08/18 16:04:50;;;;;;;11.07;9.07;;;;;;;;;;10173288;28;20795;-88
2023/08/18 16:09:51;;;;;;;9.45;8.48;;;;;;;;;;10208572;28;20392;-90
2023/08/18 16:14:52;;;;;;;13.95;10.80;;;;;;;;;;10197133;28;20033;-88
2023/08/18 16:19:53;;;;;;;19.38;13.60;;;;;;;;;;10186297;28;20040;-90
2023/08/18 16:24:54;;;;;;;14.88;12.80;;;;;;;;;;10182747;28;20052;-87
2023/08/18 16:29:55;;;;;;;16.27;12.75;;;;;;;;;;10169458;28;20555;-88
2023/08/18 16:34:56;;;;;;;14.80;11.45;;;;;;;;;;10154384;28;20035;-90
2023/08/18 16:39:57;;;;;;;12.65;9.98;;;;;;;;;;10190361;28;20032;-90
2023/08/18 16:45:00;;;;;;;10.57;9.35;;;;;;;;;;10189334;28;20079;-90
2023/08/18 16:50:02;;;;;;;11.43;9.05;;;;;;;;;;10185585;28;20066;-87
2023/08/18 16:55:03;;;;;;;11.75;8.68;;;;;;;;;;10174354;28;20032;-87
2023/08/18 17:00:05;;;;;;;9.88;8.05;;;;;;;;;;10193330;28;20036;-88
2023/08/18 17:05:07;;;;;;;17.05;8.10;;;;;;;;;;10168198;28;20501;-88
2023/08/18 17:10:08;;;;;;;8.90;7.30;;;;;;;;;;10194647;28;20028;-86
2023/08/18 17:15:09;;;;;;;9.27;7.43;;;;;;;;;;10152599;28;20056;-88
2023/08/18 17:20:10;;;;;;;9.93;7.82;;;;;;;;;;10248623;28;20032;-90
2023/08/18 17:25:12;;;;;;;13.38;8.30;;;;;;;;;;10189141;28;20395;-88
2023/08/18 17:30:13;;;;;;;11.75;8.05;;;;;;;;;;10192580;28;20039;-89
2023/08/18 17:35:14;;;;;;;9.38;7.20;;;;;;;;;;10169976;28;20037;-89
2023/08/18 17:40:15;;;;;;;11.15;7.22;;;;;;;;;;10189611;28;20068;-90
2023/08/18 17:45:16;;;;;;;10.35;7.72;;;;;;;;;;10166934;28;20044;-89
2023/08/18 17:50:17;;;;;;;10.88;7.90;;;;;;;;;;10160101;28;20106;-88
2023/08/18 17:55:18;;;;;;;13.25;8.13;;;;;;;;;;10162023;28;20107;-90
2023/08/18 18:00:19;;;;;;;10.43;8.23;;;;;;;;;;10195680;28;20036;-91
2023/08/18 18:05:20;;;;;;;12.50;8.85;;;;;;;;;;10158035;28;20377;-89
2023/08/18 18:10:21;;;;;;;9.88;8.55;;;;;;;;;;10250834;28;20670;-89
2023/08/18 18:15:23;;;;;;;9.45;7.85;;;;;;;;;;10179815;28;20040;-90
2023/08/18 18:20:24;;;;;;;11.93;8.85;;;;;;;;;;10158358;28;20032;-88
2023/08/18 18:25:25;;;;;;;11.43;8.93;;;;;;;;;;10236788;28;20408;-88
2023/08/18 18:30:27;;;;;;;12.52;9.98;;;;;;;;;;10181614;28;20039;-90
2023/08/18 18:35:28;;;;;;;13.98;9.43;;;;;;;;;;10140616;28;20114;-89
2023/08/18 18:40:29;;;;;;;12.68;10.13;;;;;;;;;;10180533;28;20060;-92
2023/08/18 18:45:31;;;;;;;13.23;10.43;;;;;;;;;;10156311;28;20036;-89
2023/08/18 18:50:32;;;;;;;14.18;10.45;;;;;;;;;;10146083;28;20492;-89
2023/08/18 18:55:33;;;;;;;14.98;10.65;;;;;;;;;;10253144;28;20024;-90
2023/08/18 19:00:34;;;;;;;14.35;11.07;;;;;;;;;;10142940;28;20056;-90
2023/08/18 19:05:46;;;;;;;13.10;11.00;;;;;;;;;;10157474;28;20371;-90
2023/08/18 19:10:48;;;;;;;12.88;10.50;;;;;;;;;;10156806;28;20043;-90
2023/08/18 19:15:52;;;;;;;12.75;10.88;;;;;;;;;;10157726;28;20496;-90
2023/08/18 19:20:53;;;;;;;13.90;10.80;;;;;;;;;;10157351;28;20050;-90
2023/08/18 19:25:54;;;;;;;14.73;11.98;;;;;;;;;;10184370;28;20446;-91
2023/08/18 19:30:55;;;;;;;14.98;11.18;;;;;;;;;;10209623;28;20051;-87
2023/08/18 19:35:58;;;;;;;13.70;11.23;;;;;;;;;;10233584;28;20033;-93
2023/08/18 19:40:59;;;;;;;19.92;12.45;;;;;;;;;;10183894;28;20047;-89
2023/08/18 19:46:01;;;;;;;14.18;11.93;;;;;;;;;;10170755;28;20040;-89
2023/08/18 19:51:02;;;;;;;15.70;11.13;;;;;;;;;;10174192;28;20056;-89
2023/08/18 19:56:04;;;;;;;17.17;11.93;;;;;;;;;;10200291;28;20034;-90
2023/08/18 20:01:05;;;;;;;16.58;12.85;;;;;;;;;;10213025;28;20772;-88
2023/08/18 20:06:08;;;;;;;17.23;12.77;;;;;;;;;;10155335;28;20052;-89
2023/08/18 20:11:10;;;;;;;15.73;11.35;;;;;;;;;;10162123;28;20048;-89
2023/08/18 20:16:11;;;;;;;15.55;12.30;;;;;;;;;;10155157;28;20538;-88
2023/08/18 20:21:14;;;;;;;15.23;11.27;;;;;;;;;;10155347;28;20506;-91
2023/08/18 20:26:15;;;;;;;15.73;12.25;;;;;;;;;;10188775;28;20059;-89
2023/08/18 20:31:16;;;;;;;16.00;12.23;;;;;;;;;;10172854;28;20123;-89
2023/08/18 20:36:17;;;;;;;14.88;11.35;;;;;;;;;;10185608;28;20457;-89
2023/08/18 20:41:19;;;;;;;17.75;11.90;;;;;;;;;;10163754;28;20397;-89
2023/08/18 20:46:22;;;;;;;14.27;11.98;;;;;;;;;;10155404;28;20079;-89
2023/08/18 20:51:23;;;;;;;13.95;11.50;;;;;;;;;;10108419;28;20224;-88
2023/08/18 20:56:24;;;;;;;13.32;11.25;;;;;;;;;;10092462;28;20045;-90
2023/08/18 21:01:26;;;;;;;12.65;10.20;;;;;;;;;;10293755;28;20035;-90
2023/08/18 21:06:27;;;;;;;13.57;10.80;;;;;;;;;;10294576;28;20058;-89
2023/08/18 21:11:28;;;;;;;12.30;10.98;;;;;;;;;;10293661;28;20034;-89
2023/08/18 21:16:29;;;;;;;15.18;10.82;;;;;;;;;;10294219;28;20105;-88
2023/08/18 21:21:30;;;;;;;15.75;12.02;;;;;;;;;;10294714;28;20486;-89
2023/08/18 21:26:31;;;;;;;15.07;11.45;;;;;;;;;;10295899;28;20074;-90
2023/08/18 21:31:33;;;;;;;13.30;10.85;;;;;;;;;;10300847;28;20042;-91
2023/08/18 21:36:36;;;;;;;14.32;11.30;;;;;;;;;;10284501;28;20035;-92
2023/08/18 21:41:37;;;;;;;12.13;10.75;;;;;;;;;;10300926;28;20057;-89
2023/08/18 21:46:38;;;;;;;14.48;11.82;;;;;;;;;;10301167;28;20034;-87
2023/08/18 21:51:39;;;;;;;13.48;11.68;;;;;;;;;;10325800;28;20033;-87
2023/08/18 21:56:41;;;;;;;13.77;11.65;;;;;;;;;;10325058;28;20034;-87
2023/08/18 22:01:42;;;;;;;16.20;10.95;;;;;;;;;;10318531;28;20479;-87
2023/08/18 22:06:43;;;;;;;14.50;11.65;;;;;;;;;;10333006;28;20050;-88
2023/08/18 22:11:44;;;;;;;15.48;12.48;;;;;;;;;;10471555;23;20060;-86
2023/08/18 22:16:45;;;;;;;17.88;13.35;;;;;;;;;;10510940;28;20032;-88
2023/08/18 22:21:46;;;;;;;16.33;13.88;;;;;;;;;;10516139;28;20127;-86
2023/08/18 22:26:47;;;;;;;16.63;12.80;;;;;;;;;;10496001;28;20053;-86
2023/08/18 22:31:48;;;;;;;18.75;13.05;;;;;;;;;;10512907;28;20024;-89
2023/08/18 22:36:49;;;;;;;18.88;14.35;;;;;;;;;;10498632;28;20038;-88
2023/08/18 22:41:50;;;;;;;21.65;16.23;;;;;;;;;;10511474;28;20032;-90
2023/08/18 22:47:10;;;;;;;19.60;14.43;;;;;;;;;;10467078;28;20475;-89
2023/08/18 22:52:11;;;;;;;18.17;14.23;;;;;;;;;;10506612;28;20024;-89
2023/08/18 22:57:12;;;;;;;18.30;13.13;;;;;;;;;;10480427;28;20034;-90
2023/08/18 23:02:14;;;;;;;22.17;15.70;;;;;;;;;;10511056;28;20043;-88
2023/08/18 23:07:16;;;;;;;20.42;16.48;;;;;;;;;;10509962;28;20032;-89
2023/08/18 23:12:17;;;;;;;21.90;15.98;;;;;;;;;;10488035;28;20061;-89
2023/08/18 23:17:18;;;;;;;18.02;14.23;;;;;;;;;;10499452;28;20107;-88
2023/08/18 23:22:19;;;;;;;20.38;13.95;;;;;;;;;;10507253;28;20497;-89
2023/08/18 23:27:20;;;;;;;19.85;15.10;;;;;;;;;;10502450;28;20158;-89
2023/08/18 23:32:21;;;;;;;18.70;14.55;;;;;;;;;;10504546;28;20024;-88
2023/08/18 23:37:22;;;;;;;22.02;15.88;;;;;;;;;;10507958;28;20466;-89
2023/08/18 23:42:23;;;;;;;22.35;17.40;;;;;;;;;;10486521;28;20545;-90
2023/08/18 23:47:24;;;;;;;21.95;16.10;;;;;;;;;;10500893;28;20132;-88
2023/08/18 23:52:26;;;;;;;17.23;13.55;;;;;;;;;;10446271;28;20027;-89
2023/08/18 23:57:27;;;;;;;18.85;14.68;;;;;;;;;;10487369;28;20032;-89
